sensor_id;sensor_type;location;lat;lon;timestamp;P1;durP1;ratioP1;P2;durP2;ratioP2
36597;SDS011;22607;49.550;11.940;2023-07-20T00:02:24;7.82;;;2.00;;
36597;SDS011;22607;49.550;11.940;2023-07-20T00:04:51;6.68;;;1.88;;
36597;SDS011;22607;49.550;11.940;2023-07-20T00:07:18;5.35;;;1.83;;
36597;SDS011;22607;49.550;11.940;2023-07-20T00:09:44;6.05;;;1.90;;
36597;SDS011;22607;49.550;11.940;2023-07-20T00:12:11;6.25;;;1.90;;
36597;SDS011;22607;49.550;11.940;2023-07-20T00:14:37;5.97;;;1.98;;
36597;SDS011;22607;49.550;11.940;2023-07-20T00:17:04;5.45;;;1.80;;
36597;SDS011;22607;49.550;11.940;2023-07-20T00:19:31;6.75;;;2.10;;
36597;SDS011;22607;49.550;11.940;2023-07-20T00:21:58;5.47;;;1.90;;
36597;SDS011;22607;49.550;11.940;2023-07-20T00:24:26;6.63;;;2.00;;
36597;SDS011;22607;49.550;11.940;2023-07-20T00:26:53;6.00;;;1.85;;
36597;SDS011;22607;49.550;11.940;2023-07-20T00:29:20;7.93;;;2.25;;
36597;SDS011;22607;49.550;11.940;2023-07-20T00:31:47;6.60;;;2.05;;
36597;SDS011;22607;49.550;11.940;2023-07-20T00:34:17;6.90;;;2.00;;
36597;SDS011;22607;49.550;11.940;2023-07-20T00:36:43;6.45;;;1.83;;
36597;SDS011;22607;49.550;11.940;2023-07-20T00:39:10;6.13;;;2.08;;
36597;SDS011;22607;49.550;11.940;2023-07-20T00:41:36;8.25;;;2.10;;
36597;SDS011;22607;49.550;11.940;2023-07-20T00:44:04;6.00;;;1.92;;
36597;SDS011;22607;49.550;11.940;2023-07-20T00:46:31;6.78;;;2.05;;
36597;SDS011;22607;49.550;11.940;2023-07-20T00:48:59;8.30;;;2.40;;
36597;SDS011;22607;49.550;11.940;2023-07-20T00:51:27;6.20;;;2.08;;
36597;SDS011;22607;49.550;11.940;2023-07-20T00:53:53;6.63;;;2.20;;
36597;SDS011;22607;49.550;11.940;2023-07-20T00:56:20;7.97;;;2.17;;
36597;SDS011;22607;49.550;11.940;2023-07-20T00:58:48;6.28;;;2.08;;
36597;SDS011;22607;49.550;11.940;2023-07-20T01:01:16;6.88;;;1.90;;
36597;SDS011;22607;49.550;11.940;2023-07-20T01:03:42;7.60;;;1.90;;
36597;SDS011;22607;49.550;11.940;2023-07-20T01:06:13;7.00;;;2.00;;
36597;SDS011;22607;49.550;11.940;2023-07-20T01:08:52;6.93;;;2.13;;
36597;SDS011;22607;49.550;11.940;2023-07-20T01:12:05;5.63;;;1.90;;
36597;SDS011;22607;49.550;11.940;2023-07-20T01:14:21;6.90;;;2.00;;
36597;SDS011;22607;49.550;11.940;2023-07-20T01:16:49;7.32;;;2.03;;
36597;SDS011;22607;49.550;11.940;2023-07-20T01:19:18;6.30;;;2.08;;
36597;SDS011;22607;49.550;11.940;2023-07-20T01:21:48;6.22;;;1.98;;
36597;SDS011;22607;49.550;11.940;2023-07-20T01:24:51;7.38;;;2.10;;
36597;SDS011;22607;49.550;11.940;2023-07-20T01:33:40;5.68;;;1.90;;
36597;SDS011;22607;49.550;11.940;2023-07-20T01:36:08;5.70;;;1.90;;
36597;SDS011;22607;49.550;11.940;2023-07-20T01:38:37;5.35;;;1.80;;
36597;SDS011;22607;49.550;11.940;2023-07-20T01:41:03;6.63;;;2.13;;
36597;SDS011;22607;49.550;11.940;2023-07-20T01:43:31;6.88;;;1.90;;
36597;SDS011;22607;49.550;11.940;2023-07-20T01:45:58;7.28;;;2.63;;
36597;SDS011;22607;49.550;11.940;2023-07-20T01:48:24;7.07;;;2.60;;
36597;SDS011;22607;49.550;11.940;2023-07-20T01:50:51;6.68;;;2.25;;
36597;SDS011;22607;49.550;11.940;2023-07-20T01:53:17;6.40;;;2.03;;
36597;SDS011;22607;49.550;11.940;2023-07-20T01:55:44;8.05;;;2.50;;
36597;SDS011;22607;49.550;11.940;2023-07-20T01:58:10;7.45;;;2.33;;
36597;SDS011;22607;49.550;11.940;2023-07-20T02:00:37;8.55;;;2.42;;
36597;SDS011;22607;49.550;11.940;2023-07-20T02:03:05;7.63;;;2.55;;
36597;SDS011;22607;49.550;11.940;2023-07-20T02:05:31;7.07;;;2.65;;
36597;SDS011;22607;49.550;11.940;2023-07-20T02:07:59;8.15;;;2.50;;
36597;SDS011;22607;49.550;11.940;2023-07-20T02:10:25;6.68;;;2.22;;
36597;SDS011;22607;49.550;11.940;2023-07-20T02:12:52;7.03;;;2.15;;
36597;SDS011;22607;49.550;11.940;2023-07-20T02:15:19;7.53;;;2.47;;
36597;SDS011;22607;49.550;11.940;2023-07-20T02:17:45;7.55;;;2.10;;
36597;SDS011;22607;49.550;11.940;2023-07-20T02:20:12;7.82;;;2.25;;
36597;SDS011;22607;49.550;11.940;2023-07-20T02:22:39;7.90;;;2.53;;
36597;SDS011;22607;49.550;11.940;2023-07-20T02:25:06;6.57;;;2.35;;
36597;SDS011;22607;49.550;11.940;2023-07-20T02:27:34;6.93;;;2.47;;
36597;SDS011;22607;49.550;11.940;2023-07-20T02:30:01;6.55;;;2.10;;
36597;SDS011;22607;49.550;11.940;2023-07-20T02:32:28;8.63;;;2.63;;
36597;SDS011;22607;49.550;11.940;2023-07-20T02:34:55;8.23;;;2.58;;
36597;SDS011;22607;49.550;11.940;2023-07-20T02:37:21;6.80;;;2.20;;
36597;SDS011;22607;49.550;11.940;2023-07-20T02:39:48;6.57;;;2.30;;
36597;SDS011;22607;49.550;11.940;2023-07-20T02:42:14;7.95;;;2.50;;
36597;SDS011;22607;49.550;11.940;2023-07-20T02:44:41;7.72;;;2.53;;
36597;SDS011;22607;49.550;11.940;2023-07-20T02:47:08;7.18;;;2.28;;
36597;SDS011;22607;49.550;11.940;2023-07-20T02:49:35;9.30;;;2.58;;
36597;SDS011;22607;49.550;11.940;2023-07-20T02:52:01;7.70;;;2.50;;
36597;SDS011;22607;49.550;11.940;2023-07-20T02:54:28;6.32;;;2.20;;
36597;SDS011;22607;49.550;11.940;2023-07-20T02:56:56;7.30;;;2.53;;
36597;SDS011;22607;49.550;11.940;2023-07-20T02:59:24;6.70;;;2.25;;
36597;SDS011;22607;49.550;11.940;2023-07-20T03:01:50;7.53;;;2.35;;
36597;SDS011;22607;49.550;11.940;2023-07-20T03:04:17;9.15;;;3.00;;
36597;SDS011;22607;49.550;11.940;2023-07-20T03:06:43;8.00;;;2.80;;
36597;SDS011;22607;49.550;11.940;2023-07-20T03:09:10;8.18;;;2.47;;
36597;SDS011;22607;49.550;11.940;2023-07-20T03:11:36;6.80;;;2.40;;
36597;SDS011;22607;49.550;11.940;2023-07-20T03:14:04;6.50;;;2.38;;
36597;SDS011;22607;49.550;11.940;2023-07-20T03:16:31;7.68;;;2.55;;
36597;SDS011;22607;49.550;11.940;2023-07-20T03:18:59;7.85;;;2.63;;
36597;SDS011;22607;49.550;11.940;2023-07-20T03:21:29;7.63;;;2.70;;
36597;SDS011;22607;49.550;11.940;2023-07-20T03:23:57;7.57;;;2.65;;
36597;SDS011;22607;49.550;11.940;2023-07-20T03:26:23;8.00;;;2.60;;
36597;SDS011;22607;49.550;11.940;2023-07-20T03:28:51;6.97;;;2.47;;
36597;SDS011;22607;49.550;11.940;2023-07-20T03:31:18;7.70;;;2.35;;
36597;SDS011;22607;49.550;11.940;2023-07-20T03:33:45;6.50;;;2.47;;
36597;SDS011;22607;49.550;11.940;2023-07-20T03:36:11;6.78;;;2.22;;
36597;SDS011;22607;49.550;11.940;2023-07-20T03:38:38;7.85;;;2.60;;
36597;SDS011;22607;49.550;11.940;2023-07-20T03:41:05;8.45;;;2.80;;
36597;SDS011;22607;49.550;11.940;2023-07-20T03:43:32;8.57;;;2.53;;
36597;SDS011;22607;49.550;11.940;2023-07-20T03:45:58;7.68;;;2.67;;
36597;SDS011;22607;49.550;11.940;2023-07-20T03:48:25;6.80;;;2.38;;
36597;SDS011;22607;49.550;11.940;2023-07-20T03:50:52;7.65;;;2.40;;
36597;SDS011;22607;49.550;11.940;2023-07-20T03:53:20;8.07;;;2.55;;
36597;SDS011;22607;49.550;11.940;2023-07-20T03:55:47;8.02;;;2.83;;
36597;SDS011;22607;49.550;11.940;2023-07-20T03:58:17;7.33;;;2.50;;
36597;SDS011;22607;49.550;11.940;2023-07-20T04:00:46;7.03;;;2.38;;
36597;SDS011;22607;49.550;11.940;2023-07-20T04:03:13;6.97;;;2.47;;
36597;SDS011;22607;49.550;11.940;2023-07-20T04:05:41;7.18;;;2.30;;
36597;SDS011;22607;49.550;11.940;2023-07-20T04:08:08;7.13;;;2.45;;
36597;SDS011;22607;49.550;11.940;2023-07-20T04:10:35;8.15;;;2.72;;
36597;SDS011;22607;49.550;11.940;2023-07-20T04:13:02;8.45;;;2.97;;
36597;SDS011;22607;49.550;11.940;2023-07-20T04:15:29;8.60;;;3.08;;
36597;SDS011;22607;49.550;11.940;2023-07-20T04:17:56;8.18;;;2.80;;
36597;SDS011;22607;49.550;11.940;2023-07-20T04:20:23;6.63;;;2.60;;
36597;SDS011;22607;49.550;11.940;2023-07-20T04:22:50;9.40;;;2.85;;
36597;SDS011;22607;49.550;11.940;2023-07-20T04:25:17;8.80;;;3.42;;
36597;SDS011;22607;49.550;11.940;2023-07-20T04:27:45;8.18;;;3.03;;
36597;SDS011;22607;49.550;11.940;2023-07-20T04:30:12;10.95;;;4.22;;
36597;SDS011;22607;49.550;11.940;2023-07-20T04:32:39;9.30;;;4.00;;
36597;SDS011;22607;49.550;11.940;2023-07-20T04:35:16;8.50;;;3.80;;
36597;SDS011;22607;49.550;11.940;2023-07-20T04:38:03;8.45;;;3.50;;
36597;SDS011;22607;49.550;11.940;2023-07-20T04:40:30;10.65;;;4.40;;
36597;SDS011;22607;49.550;11.940;2023-07-20T04:42:56;8.70;;;4.57;;
36597;SDS011;22607;49.550;11.940;2023-07-20T04:45:23;9.25;;;4.15;;
36597;SDS011;22607;49.550;11.940;2023-07-20T04:47:50;9.90;;;4.53;;
36597;SDS011;22607;49.550;11.940;2023-07-20T04:50:17;9.20;;;4.28;;
36597;SDS011;22607;49.550;11.940;2023-07-20T04:52:44;9.23;;;4.18;;
36597;SDS011;22607;49.550;11.940;2023-07-20T04:55:12;9.45;;;3.92;;
36597;SDS011;22607;49.550;11.940;2023-07-20T04:57:39;9.32;;;4.15;;
36597;SDS011;22607;49.550;11.940;2023-07-20T05:00:05;8.60;;;3.50;;
36597;SDS011;22607;49.550;11.940;2023-07-20T05:02:33;10.15;;;4.53;;
36597;SDS011;22607;49.550;11.940;2023-07-20T05:04:59;9.48;;;4.00;;
36597;SDS011;22607;49.550;11.940;2023-07-20T05:07:27;9.43;;;4.28;;
36597;SDS011;22607;49.550;11.940;2023-07-20T05:09:54;10.90;;;3.80;;
36597;SDS011;22607;49.550;11.940;2023-07-20T05:12:20;10.85;;;4.20;;
36597;SDS011;22607;49.550;11.940;2023-07-20T05:14:48;9.65;;;3.90;;
36597;SDS011;22607;49.550;11.940;2023-07-20T05:17:14;9.10;;;4.53;;
36597;SDS011;22607;49.550;11.940;2023-07-20T05:19:42;8.85;;;3.55;;
36597;SDS011;22607;49.550;11.940;2023-07-20T05:22:13;12.30;;;4.22;;
36597;SDS011;22607;49.550;11.940;2023-07-20T05:24:40;8.00;;;3.22;;
36597;SDS011;22607;49.550;11.940;2023-07-20T05:27:07;8.80;;;3.13;;
36597;SDS011;22607;49.550;11.940;2023-07-20T05:29:33;8.10;;;3.67;;
36597;SDS011;22607;49.550;11.940;2023-07-20T05:32:00;9.27;;;3.70;;
36597;SDS011;22607;49.550;11.940;2023-07-20T05:34:27;8.70;;;3.03;;
36597;SDS011;22607;49.550;11.940;2023-07-20T05:36:54;9.10;;;2.95;;
36597;SDS011;22607;49.550;11.940;2023-07-20T05:39:21;8.02;;;2.88;;
36597;SDS011;22607;49.550;11.940;2023-07-20T05:41:48;7.00;;;2.83;;
36597;SDS011;22607;49.550;11.940;2023-07-20T05:44:14;8.10;;;2.95;;
36597;SDS011;22607;49.550;11.940;2023-07-20T05:46:41;8.77;;;2.80;;
36597;SDS011;22607;49.550;11.940;2023-07-20T05:49:23;8.35;;;2.80;;
36597;SDS011;22607;49.550;11.940;2023-07-20T05:51:50;8.75;;;3.22;;
36597;SDS011;22607;49.550;11.940;2023-07-20T05:54:16;7.13;;;2.47;;
36597;SDS011;22607;49.550;11.940;2023-07-20T05:56:43;8.45;;;2.88;;
36597;SDS011;22607;49.550;11.940;2023-07-20T05:59:09;8.05;;;2.55;;
36597;SDS011;22607;49.550;11.940;2023-07-20T06:01:36;7.65;;;2.60;;
36597;SDS011;22607;49.550;11.940;2023-07-20T06:04:03;8.65;;;2.70;;
36597;SDS011;22607;49.550;11.940;2023-07-20T06:06:30;9.45;;;3.00;;
36597;SDS011;22607;49.550;11.940;2023-07-20T06:08:56;9.48;;;3.03;;
36597;SDS011;22607;49.550;11.940;2023-07-20T06:11:23;6.82;;;2.20;;
36597;SDS011;22607;49.550;11.940;2023-07-20T06:13:50;7.55;;;2.10;;
36597;SDS011;22607;49.550;11.940;2023-07-20T06:16:16;8.43;;;2.40;;
36597;SDS011;22607;49.550;11.940;2023-07-20T06:18:43;7.70;;;2.63;;
36597;SDS011;22607;49.550;11.940;2023-07-20T06:21:11;7.20;;;2.70;;
36597;SDS011;22607;49.550;11.940;2023-07-20T06:23:38;6.45;;;2.50;;
36597;SDS011;22607;49.550;11.940;2023-07-20T06:26:08;7.28;;;2.67;;
36597;SDS011;22607;49.550;11.940;2023-07-20T06:28:35;8.00;;;2.83;;
36597;SDS011;22607;49.550;11.940;2023-07-20T06:31:02;6.22;;;2.22;;
36597;SDS011;22607;49.550;11.940;2023-07-20T06:33:30;6.60;;;2.08;;
36597;SDS011;22607;49.550;11.940;2023-07-20T06:35:57;8.25;;;2.35;;
36597;SDS011;22607;49.550;11.940;2023-07-20T06:38:24;9.05;;;2.70;;
36597;SDS011;22607;49.550;11.940;2023-07-20T06:40:53;7.28;;;2.33;;
36597;SDS011;22607;49.550;11.940;2023-07-20T06:43:20;7.72;;;2.78;;
36597;SDS011;22607;49.550;11.940;2023-07-20T06:45:53;7.32;;;2.55;;
36597;SDS011;22607;49.550;11.940;2023-07-20T06:48:20;9.33;;;3.20;;
36597;SDS011;22607;49.550;11.940;2023-07-20T06:50:48;7.75;;;2.60;;
36597;SDS011;22607;49.550;11.940;2023-07-20T06:53:14;8.63;;;2.40;;
36597;SDS011;22607;49.550;11.940;2023-07-20T06:55:44;7.55;;;2.60;;
36597;SDS011;22607;49.550;11.940;2023-07-20T06:58:10;7.75;;;2.50;;
36597;SDS011;22607;49.550;11.940;2023-07-20T07:00:37;7.65;;;2.90;;
36597;SDS011;22607;49.550;11.940;2023-07-20T07:03:04;6.72;;;2.42;;
36597;SDS011;22607;49.550;11.940;2023-07-20T07:05:31;7.82;;;2.13;;
36597;SDS011;22607;49.550;11.940;2023-07-20T07:08:00;7.53;;;2.20;;
36597;SDS011;22607;49.550;11.940;2023-07-20T07:10:27;7.43;;;2.40;;
36597;SDS011;22607;49.550;11.940;2023-07-20T07:12:53;6.95;;;2.22;;
36597;SDS011;22607;49.550;11.940;2023-07-20T07:15:21;6.90;;;2.30;;
36597;SDS011;22607;49.550;11.940;2023-07-20T07:17:47;7.25;;;2.17;;
36597;SDS011;22607;49.550;11.940;2023-07-20T07:20:14;6.97;;;2.40;;
36597;SDS011;22607;49.550;11.940;2023-07-20T07:22:44;6.22;;;2.20;;
36597;SDS011;22607;49.550;11.940;2023-07-20T07:25:12;7.22;;;2.30;;
36597;SDS011;22607;49.550;11.940;2023-07-20T07:27:39;6.85;;;2.30;;
36597;SDS011;22607;49.550;11.940;2023-07-20T07:30:05;6.03;;;2.00;;
36597;SDS011;22607;49.550;11.940;2023-07-20T07:32:32;6.30;;;2.15;;
36597;SDS011;22607;49.550;11.940;2023-07-20T07:34:59;7.93;;;2.22;;
36597;SDS011;22607;49.550;11.940;2023-07-20T07:37:26;7.55;;;2.15;;
36597;SDS011;22607;49.550;11.940;2023-07-20T07:39:53;8.38;;;2.33;;
36597;SDS011;22607;49.550;11.940;2023-07-20T07:42:19;6.65;;;2.10;;
36597;SDS011;22607;49.550;11.940;2023-07-20T07:44:50;7.38;;;2.20;;
36597;SDS011;22607;49.550;11.940;2023-07-20T07:47:16;6.47;;;2.08;;
36597;SDS011;22607;49.550;11.940;2023-07-20T07:49:43;6.45;;;2.10;;
36597;SDS011;22607;49.550;11.940;2023-07-20T07:52:12;6.68;;;2.30;;
36597;SDS011;22607;49.550;11.940;2023-07-20T07:54:40;7.13;;;2.50;;
36597;SDS011;22607;49.550;11.940;2023-07-20T07:57:07;7.07;;;2.10;;
36597;SDS011;22607;49.550;11.940;2023-07-20T07:59:33;6.07;;;2.10;;
36597;SDS011;22607;49.550;11.940;2023-07-20T08:02:04;5.93;;;2.00;;
36597;SDS011;22607;49.550;11.940;2023-07-20T08:04:32;7.85;;;2.40;;
36597;SDS011;22607;49.550;11.940;2023-07-20T08:06:59;7.72;;;2.38;;
36597;SDS011;22607;49.550;11.940;2023-07-20T08:09:26;6.78;;;2.30;;
36597;SDS011;22607;49.550;11.940;2023-07-20T08:11:52;6.55;;;2.20;;
36597;SDS011;22607;49.550;11.940;2023-07-20T08:14:19;6.47;;;2.10;;
36597;SDS011;22607;49.550;11.940;2023-07-20T08:16:45;7.13;;;2.22;;
36597;SDS011;22607;49.550;11.940;2023-07-20T08:19:13;6.20;;;1.95;;
36597;SDS011;22607;49.550;11.940;2023-07-20T08:21:40;5.88;;;1.83;;
36597;SDS011;22607;49.550;11.940;2023-07-20T08:24:07;6.88;;;2.10;;
36597;SDS011;22607;49.550;11.940;2023-07-20T08:26:33;6.68;;;2.05;;
36597;SDS011;22607;49.550;11.940;2023-07-20T08:29:00;7.53;;;2.30;;
36597;SDS011;22607;49.550;11.940;2023-07-20T08:31:27;6.15;;;2.10;;
36597;SDS011;22607;49.550;11.940;2023-07-20T08:33:54;5.82;;;2.00;;
36597;SDS011;22607;49.550;11.940;2023-07-20T08:36:23;8.40;;;2.13;;
36597;SDS011;22607;49.550;11.940;2023-07-20T08:38:50;5.95;;;2.00;;
36597;SDS011;22607;49.550;11.940;2023-07-20T08:41:18;5.60;;;1.80;;
36597;SDS011;22607;49.550;11.940;2023-07-20T08:43:44;5.95;;;1.80;;
36597;SDS011;22607;49.550;11.940;2023-07-20T08:46:13;6.72;;;1.80;;
36597;SDS011;22607;49.550;11.940;2023-07-20T08:48:41;5.90;;;1.92;;
36597;SDS011;22607;49.550;11.940;2023-07-20T08:51:09;5.90;;;1.70;;
36597;SDS011;22607;49.550;11.940;2023-07-20T08:53:37;4.88;;;1.60;;
36597;SDS011;22607;49.550;11.940;2023-07-20T08:56:04;6.68;;;1.90;;
36597;SDS011;22607;49.550;11.940;2023-07-20T08:58:31;8.73;;;2.17;;
36597;SDS011;22607;49.550;11.940;2023-07-20T09:01:00;7.45;;;2.20;;
36597;SDS011;22607;49.550;11.940;2023-07-20T09:03:28;5.57;;;1.40;;
36597;SDS011;22607;49.550;11.940;2023-07-20T09:05:54;6.10;;;1.60;;
36597;SDS011;22607;49.550;11.940;2023-07-20T09:08:21;5.97;;;1.88;;
36597;SDS011;22607;49.550;11.940;2023-07-20T09:10:48;5.53;;;1.58;;
36597;SDS011;22607;49.550;11.940;2023-07-20T09:13:15;5.70;;;1.83;;
36597;SDS011;22607;49.550;11.940;2023-07-20T09:15:46;5.43;;;1.83;;
36597;SDS011;22607;49.550;11.940;2023-07-20T09:18:23;5.15;;;1.50;;
36597;SDS011;22607;49.550;11.940;2023-07-20T09:21:00;6.57;;;1.75;;
36597;SDS011;22607;49.550;11.940;2023-07-20T09:23:35;6.28;;;1.77;;
36597;SDS011;22607;49.550;11.940;2023-07-20T09:26:10;5.28;;;1.70;;
36597;SDS011;22607;49.550;11.940;2023-07-20T09:31:17;5.13;;;1.40;;
36597;SDS011;22607;49.550;11.940;2023-07-20T09:33:45;6.55;;;1.40;;
36597;SDS011;22607;49.550;11.940;2023-07-20T09:36:15;5.90;;;1.45;;
36597;SDS011;22607;49.550;11.940;2023-07-20T09:39:02;7.72;;;1.60;;
36597;SDS011;22607;49.550;11.940;2023-07-20T09:41:39;8.63;;;1.75;;
36597;SDS011;22607;49.550;11.940;2023-07-20T09:44:11;4.57;;;1.50;;
36597;SDS011;22607;49.550;11.940;2023-07-20T09:46:48;5.35;;;1.55;;
36597;SDS011;22607;49.550;11.940;2023-07-20T09:49:18;6.43;;;1.63;;
36597;SDS011;22607;49.550;11.940;2023-07-20T09:51:47;3.92;;;1.38;;
36597;SDS011;22607;49.550;11.940;2023-07-20T09:54:14;5.93;;;1.58;;
36597;SDS011;22607;49.550;11.940;2023-07-20T09:56:42;5.22;;;1.50;;
36597;SDS011;22607;49.550;11.940;2023-07-20T09:59:10;5.85;;;1.67;;
36597;SDS011;22607;49.550;11.940;2023-07-20T10:01:37;4.88;;;1.45;;
36597;SDS011;22607;49.550;11.940;2023-07-20T10:04:08;7.47;;;1.70;;
36597;SDS011;22607;49.550;11.940;2023-07-20T10:06:35;3.67;;;1.27;;
36597;SDS011;22607;49.550;11.940;2023-07-20T10:11:35;5.35;;;1.70;;
36597;SDS011;22607;49.550;11.940;2023-07-20T10:14:04;4.38;;;1.50;;
36597;SDS011;22607;49.550;11.940;2023-07-20T10:16:39;4.07;;;1.38;;
36597;SDS011;22607;49.550;11.940;2023-07-20T10:22:18;6.32;;;1.60;;
36597;SDS011;22607;49.550;11.940;2023-07-20T10:24:51;4.25;;;1.20;;
36597;SDS011;22607;49.550;11.940;2023-07-20T10:27:20;6.22;;;1.40;;
36597;SDS011;22607;49.550;11.940;2023-07-20T10:29:47;5.30;;;1.30;;
36597;SDS011;22607;49.550;11.940;2023-07-20T10:32:15;5.50;;;1.30;;
36597;SDS011;22607;49.550;11.940;2023-07-20T10:34:42;5.45;;;1.35;;
36597;SDS011;22607;49.550;11.940;2023-07-20T10:37:08;4.40;;;1.30;;
36597;SDS011;22607;49.550;11.940;2023-07-20T10:39:35;6.38;;;1.65;;
36597;SDS011;22607;49.550;11.940;2023-07-20T10:44:30;7.20;;;1.95;;
36597;SDS011;22607;49.550;11.940;2023-07-20T10:47:00;5.88;;;1.65;;
36597;SDS011;22607;49.550;11.940;2023-07-20T10:49:30;4.70;;;1.40;;
36597;SDS011;22607;49.550;11.940;2023-07-20T10:51:59;4.75;;;1.30;;
36597;SDS011;22607;49.550;11.940;2023-07-20T10:59:49;3.72;;;1.20;;
36597;SDS011;22607;49.550;11.940;2023-07-20T11:02:17;5.90;;;1.30;;
36597;SDS011;22607;49.550;11.940;2023-07-20T11:04:45;3.95;;;1.10;;
36597;SDS011;22607;49.550;11.940;2023-07-20T11:07:17;4.40;;;1.23;;
36597;SDS011;22607;49.550;11.940;2023-07-20T11:10:15;4.25;;;1.20;;
36597;SDS011;22607;49.550;11.940;2023-07-20T11:18:14;4.47;;;1.30;;
36597;SDS011;22607;49.550;11.940;2023-07-20T11:20:41;5.32;;;1.33;;
36597;SDS011;22607;49.550;11.940;2023-07-20T11:23:09;5.00;;;1.30;;
36597;SDS011;22607;49.550;11.940;2023-07-20T11:25:39;3.78;;;1.27;;
36597;SDS011;22607;49.550;11.940;2023-07-20T11:28:07;4.18;;;1.10;;
36597;SDS011;22607;49.550;11.940;2023-07-20T11:30:36;5.90;;;1.20;;
36597;SDS011;22607;49.550;11.940;2023-07-20T11:33:10;5.00;;;1.30;;
36597;SDS011;22607;49.550;11.940;2023-07-20T11:35:44;3.13;;;0.95;;
36597;SDS011;22607;49.550;11.940;2023-07-20T11:38:13;3.78;;;1.10;;
36597;SDS011;22607;49.550;11.940;2023-07-20T11:40:46;4.35;;;1.27;;
36597;SDS011;22607;49.550;11.940;2023-07-20T11:43:13;4.10;;;1.20;;
36597;SDS011;22607;49.550;11.940;2023-07-20T11:45:43;4.27;;;1.23;;
36597;SDS011;22607;49.550;11.940;2023-07-20T11:48:15;4.38;;;1.20;;
36597;SDS011;22607;49.550;11.940;2023-07-20T11:50:42;3.85;;;1.00;;
36597;SDS011;22607;49.550;11.940;2023-07-20T11:53:09;4.72;;;1.20;;
36597;SDS011;22607;49.550;11.940;2023-07-20T11:55:36;4.20;;;1.20;;
36597;SDS011;22607;49.550;11.940;2023-07-20T11:58:04;4.45;;;1.10;;
36597;SDS011;22607;49.550;11.940;2023-07-20T12:00:35;5.00;;;1.58;;
36597;SDS011;22607;49.550;11.940;2023-07-20T12:03:04;4.55;;;1.20;;
36597;SDS011;22607;49.550;11.940;2023-07-20T12:05:40;4.28;;;1.15;;
36597;SDS011;22607;49.550;11.940;2023-07-20T12:08:09;3.58;;;1.02;;
36597;SDS011;22607;49.550;11.940;2023-07-20T12:10:38;4.45;;;1.30;;
36597;SDS011;22607;49.550;11.940;2023-07-20T12:13:10;8.77;;;1.23;;
36597;SDS011;22607;49.550;11.940;2023-07-20T12:15:40;4.45;;;1.00;;
36597;SDS011;22607;49.550;11.940;2023-07-20T12:18:06;2.78;;;0.90;;
36597;SDS011;22607;49.550;11.940;2023-07-20T12:20:34;3.97;;;1.00;;
36597;SDS011;22607;49.550;11.940;2023-07-20T12:23:11;4.18;;;1.10;;
36597;SDS011;22607;49.550;11.940;2023-07-20T12:25:39;2.55;;;0.93;;
36597;SDS011;22607;49.550;11.940;2023-07-20T12:28:13;3.20;;;1.10;;
36597;SDS011;22607;49.550;11.940;2023-07-20T12:30:41;3.95;;;1.02;;
36597;SDS011;22607;49.550;11.940;2023-07-20T12:33:10;3.35;;;0.98;;
36597;SDS011;22607;49.550;11.940;2023-07-20T12:35:38;3.42;;;1.00;;
36597;SDS011;22607;49.550;11.940;2023-07-20T12:38:04;4.20;;;1.08;;
36597;SDS011;22607;49.550;11.940;2023-07-20T12:40:33;4.82;;;1.00;;
36597;SDS011;22607;49.550;11.940;2023-07-20T12:43:00;2.47;;;0.90;;
36597;SDS011;22607;49.550;11.940;2023-07-20T12:45:27;2.70;;;1.00;;
36597;SDS011;22607;49.550;11.940;2023-07-20T12:47:53;4.88;;;1.50;;
36597;SDS011;22607;49.550;11.940;2023-07-20T12:50:20;2.97;;;0.90;;
36597;SDS011;22607;49.550;11.940;2023-07-20T12:52:47;3.80;;;0.90;;
36597;SDS011;22607;49.550;11.940;2023-07-20T12:55:14;4.20;;;0.90;;
36597;SDS011;22607;49.550;11.940;2023-07-20T12:57:41;4.15;;;1.02;;
36597;SDS011;22607;49.550;11.940;2023-07-20T13:00:15;5.22;;;1.00;;
36597;SDS011;22607;49.550;11.940;2023-07-20T13:02:42;4.20;;;0.93;;
36597;SDS011;22607;49.550;11.940;2023-07-20T13:05:09;5.57;;;0.90;;
36597;SDS011;22607;49.550;11.940;2023-07-20T13:07:37;3.63;;;1.00;;
36597;SDS011;22607;49.550;11.940;2023-07-20T13:10:08;3.90;;;1.10;;
36597;SDS011;22607;49.550;11.940;2023-07-20T13:12:36;2.75;;;0.82;;
36597;SDS011;22607;49.550;11.940;2023-07-20T13:15:04;4.35;;;0.93;;
36597;SDS011;22607;49.550;11.940;2023-07-20T13:17:33;3.35;;;0.90;;
36597;SDS011;22607;49.550;11.940;2023-07-20T13:20:00;2.75;;;0.95;;
36597;SDS011;22607;49.550;11.940;2023-07-20T13:22:29;3.92;;;1.10;;
36597;SDS011;22607;49.550;11.940;2023-07-20T13:24:56;3.92;;;1.10;;
36597;SDS011;22607;49.550;11.940;2023-07-20T13:27:22;3.45;;;0.98;;
36597;SDS011;22607;49.550;11.940;2023-07-20T13:29:50;3.63;;;0.93;;
36597;SDS011;22607;49.550;11.940;2023-07-20T13:32:17;2.85;;;1.10;;
36597;SDS011;22607;49.550;11.940;2023-07-20T13:34:44;4.82;;;1.05;;
36597;SDS011;22607;49.550;11.940;2023-07-20T13:37:14;6.70;;;1.13;;
36597;SDS011;22607;49.550;11.940;2023-07-20T13:39:42;3.40;;;1.10;;
36597;SDS011;22607;49.550;11.940;2023-07-20T13:42:10;2.78;;;0.90;;
36597;SDS011;22607;49.550;11.940;2023-07-20T13:44:38;2.60;;;0.90;;
36597;SDS011;22607;49.550;11.940;2023-07-20T13:47:04;3.42;;;0.90;;
36597;SDS011;22607;49.550;11.940;2023-07-20T13:49:35;3.85;;;1.05;;
36597;SDS011;22607;49.550;11.940;2023-07-20T13:52:15;3.83;;;1.10;;
36597;SDS011;22607;49.550;11.940;2023-07-20T13:54:47;3.72;;;0.90;;
36597;SDS011;22607;49.550;11.940;2023-07-20T13:57:18;2.80;;;0.90;;
36597;SDS011;22607;49.550;11.940;2023-07-20T13:59:47;4.57;;;1.00;;
36597;SDS011;22607;49.550;11.940;2023-07-20T14:02:14;2.53;;;1.05;;
36597;SDS011;22607;49.550;11.940;2023-07-20T14:04:44;2.63;;;0.90;;
36597;SDS011;22607;49.550;11.940;2023-07-20T14:07:11;3.42;;;1.00;;
36597;SDS011;22607;49.550;11.940;2023-07-20T14:09:42;4.37;;;1.00;;
36597;SDS011;22607;49.550;11.940;2023-07-20T14:12:11;3.85;;;1.00;;
36597;SDS011;22607;49.550;11.940;2023-07-20T14:14:42;3.42;;;1.02;;
36597;SDS011;22607;49.550;11.940;2023-07-20T14:17:09;4.47;;;1.10;;
36597;SDS011;22607;49.550;11.940;2023-07-20T14:19:37;5.72;;;1.90;;
36597;SDS011;22607;49.550;11.940;2023-07-20T14:22:04;4.40;;;1.13;;
36597;SDS011;22607;49.550;11.940;2023-07-20T14:24:31;4.43;;;1.30;;
36597;SDS011;22607;49.550;11.940;2023-07-20T14:26:57;4.00;;;1.08;;
36597;SDS011;22607;49.550;11.940;2023-07-20T14:29:26;3.28;;;1.00;;
36597;SDS011;22607;49.550;11.940;2023-07-20T14:31:53;3.75;;;1.10;;
36597;SDS011;22607;49.550;11.940;2023-07-20T14:34:20;4.88;;;1.50;;
36597;SDS011;22607;49.550;11.940;2023-07-20T14:36:46;6.88;;;1.52;;
36597;SDS011;22607;49.550;11.940;2023-07-20T14:39:13;3.72;;;1.00;;
36597;SDS011;22607;49.550;11.940;2023-07-20T14:41:39;6.57;;;1.30;;
36597;SDS011;22607;49.550;11.940;2023-07-20T14:44:06;4.15;;;1.20;;
36597;SDS011;22607;49.550;11.940;2023-07-20T14:46:33;3.28;;;0.88;;
36597;SDS011;22607;49.550;11.940;2023-07-20T14:48:59;4.15;;;1.20;;
36597;SDS011;22607;49.550;11.940;2023-07-20T14:51:26;3.85;;;1.13;;
36597;SDS011;22607;49.550;11.940;2023-07-20T14:54:00;5.38;;;1.25;;
36597;SDS011;22607;49.550;11.940;2023-07-20T14:56:27;5.30;;;1.10;;
36597;SDS011;22607;49.550;11.940;2023-07-20T14:58:54;4.13;;;1.25;;
36597;SDS011;22607;49.550;11.940;2023-07-20T15:01:20;4.35;;;1.20;;
36597;SDS011;22607;49.550;11.940;2023-07-20T15:03:47;3.70;;;0.98;;
36597;SDS011;22607;49.550;11.940;2023-07-20T15:06:16;3.83;;;1.13;;
36597;SDS011;22607;49.550;11.940;2023-07-20T15:08:43;3.70;;;1.00;;